Time;durP1;ratioP1;P1;durP2;ratioP2;P2;SDS_P1;SDS_P2;PMS_P1;PMS_P2;Temp;Humidity;BMP_temperature;BMP_pressure;BME280_temperature;BME280_humidity;BME280_pressure;Samples;Min_cycle;Max_cycle;Signal;HPM_P1;HPM_P2
2023/03/28 00:01:05;;;;;;;3.22;1.35;;;;;;;-146.19;100.00;58918.88;5001829;28;20086;-57
2023/03/28 00:03:38;;;;;;;2.92;1.20;;;;;;;-146.19;100.00;58918.88;5001627;28;20137;-60
2023/03/28 00:06:09;;;;;;;2.55;1.83;;;;;;;-146.19;100.00;58918.88;4999600;28;20081;-58
2023/03/28 00:08:39;;;;;;;7.38;1.80;;;;;;;-146.19;100.00;58918.88;4999922;28;20647;-54
2023/03/28 00:11:09;;;;;;;4.22;1.83;;;;;;;-146.19;100.00;58918.88;5001196;28;20073;-60
2023/03/28 00:13:38;;;;;;;5.00;2.03;;;;;;;-146.19;100.00;58918.88;5001347;28;20073;-58
2023/03/28 00:16:12;;;;;;;2.45;1.75;;;;;;;-146.19;100.00;58918.88;5005915;28;20088;-59
2023/03/28 00:18:41;;;;;;;3.15;1.80;;;;;;;-146.19;100.00;58918.88;5003368;28;20084;-56
2023/03/28 00:21:22;;;;;;;2.35;1.33;;;;;;;-146.19;100.00;58918.88;5003282;28;20093;-60
2023/03/28 00:23:54;;;;;;;1.75;1.38;;;;;;;-146.19;100.00;58918.88;5000792;28;20076;-59
2023/03/28 00:26:25;;;;;;;3.42;1.85;;;;;;;-146.19;100.00;58918.88;4998836;28;20141;-58
2023/03/28 00:28:53;;;;;;;3.13;1.25;;;;;;;-146.19;100.00;58918.88;5002702;28;20157;-54
2023/03/28 00:31:24;;;;;;;1.13;1.02;;;;;;;-146.19;100.00;58918.88;5003686;28;20145;-54
2023/03/28 00:33:52;;;;;;;3.85;1.60;;;;;;;-146.19;100.00;58918.88;5002812;28;20073;-57
2023/03/28 00:36:25;;;;;;;4.75;1.85;;;;;;;-146.19;100.00;58918.88;5002534;28;20086;-61
2023/03/28 00:38:53;;;;;;;4.70;1.83;;;;;;;-146.19;100.00;58918.88;4999095;28;20139;-58
2023/03/28 00:41:23;;;;;;;3.63;1.70;;;;;;;-146.19;100.00;58918.88;5001299;28;20092;-51
2023/03/28 00:43:53;;;;;;;4.00;1.70;;;;;;;-146.19;100.00;58918.88;5001640;28;20085;-60
2023/03/28 00:46:25;;;;;;;2.63;1.65;;;;;;;-146.19;100.00;58918.88;4998982;28;20090;-56
2023/03/28 00:48:55;;;;;;;2.25;1.50;;;;;;;-146.19;100.00;58918.88;5002341;28;20488;-55
2023/03/28 00:51:26;;;;;;;5.17;1.60;;;;;;;-146.19;100.00;58918.88;5001328;28;20534;-58
2023/03/28 00:53:56;;;;;;;1.77;1.33;;;;;;;-146.19;100.00;58918.88;4997826;28;20923;-53
2023/03/28 00:56:25;;;;;;;3.58;0.80;;;;;;;-146.19;100.00;58918.88;5004062;28;20085;-60
2023/03/28 00:58:54;;;;;;;1.38;1.00;;;;;;;-146.19;100.00;58918.88;4999729;28;20133;-59
2023/03/28 01:01:23;;;;;;;2.58;1.42;;;;;;;-146.19;100.00;58918.88;4996471;28;20100;-55
2023/03/28 01:04:01;;;;;;;5.13;1.80;;;;;;;-146.19;100.00;58918.88;4997249;28;20474;-59
2023/03/28 01:06:32;;;;;;;4.35;1.55;;;;;;;-146.19;100.00;58918.88;5003579;28;20874;-58
2023/03/28 01:09:05;;;;;;;7.13;1.90;;;;;;;-146.19;100.00;58918.88;4999590;28;20078;-55
2023/03/28 01:11:37;;;;;;;3.03;1.38;;;;;;;-146.19;100.00;58918.88;4998130;28;20507;-59
2023/03/28 01:14:06;;;;;;;3.10;1.85;;;;;;;-146.19;100.00;58918.88;4999991;28;20082;-52
2023/03/28 01:16:40;;;;;;;3.40;1.90;;;;;;;-146.19;100.00;58918.88;5008446;28;20081;-58
2023/03/28 01:19:12;;;;;;;4.55;2.90;;;;;;;-146.19;100.00;58918.88;4998242;28;20101;-58
2023/03/28 01:22:08;;;;;;;4.85;2.97;;;;;;;-146.19;100.00;58918.88;5002527;28;20100;-57
2023/03/28 01:24:56;;;;;;;5.72;2.28;;;;;;;-146.19;100.00;58918.88;4999354;28;20546;-59
2023/03/28 01:27:28;;;;;;;4.43;2.67;;;;;;;-146.19;100.00;58918.88;4998838;28;20077;-53
2023/03/28 01:30:32;;;;;;;2.78;1.83;;;;;;;-146.19;100.00;58918.88;5003408;28;20092;-60
2023/03/28 01:33:38;;;;;;;4.95;2.20;;;;;;;-146.19;100.00;58918.88;4997518;28;20088;-56
2023/03/28 01:36:45;;;;;;;4.45;1.95;;;;;;;-146.19;100.00;58918.88;4957998;28;20141;-59
2023/03/28 01:39:18;;;;;;;3.72;2.55;;;;;;;-146.19;100.00;58918.88;4999250;28;20073;-56
2023/03/28 01:41:52;;;;;;;2.70;1.70;;;;;;;-146.19;100.00;58918.88;5000302;28;20096;-59
2023/03/28 01:44:28;;;;;;;3.92;1.83;;;;;;;-146.19;100.00;58918.88;5003701;28;20290;-56
2023/03/28 01:47:02;;;;;;;4.00;1.42;;;;;;;-146.19;100.00;58918.88;5001046;28;20081;-58
2023/03/28 01:49:34;;;;;;;5.00;2.53;;;;;;;-146.19;100.00;58918.88;5004296;28;20089;-54
2023/03/28 01:52:09;;;;;;;3.80;2.25;;;;;;;-146.19;100.00;58918.88;5001635;28;20468;-47
2023/03/28 01:54:44;;;;;;;5.47;2.50;;;;;;;-146.19;100.00;58918.88;5007489;28;20574;-55
2023/03/28 01:57:16;;;;;;;3.45;2.30;;;;;;;-146.19;100.00;58918.88;5007256;28;20089;-52
2023/03/28 01:59:47;;;;;;;3.40;2.20;;;;;;;-146.19;100.00;58918.88;5005555;28;20522;-47
2023/03/28 02:02:21;;;;;;;4.03;2.05;;;;;;;-146.19;100.00;58918.88;5002315;28;20089;-54
2023/03/28 02:04:51;;;;;;;4.38;3.00;;;;;;;-146.19;100.00;58918.88;5006814;28;20081;-53
2023/03/28 02:07:27;;;;;;;4.93;2.40;;;;;;;-146.19;100.00;58918.88;5005473;28;20540;-49
2023/03/28 02:09:56;;;;;;;4.85;3.00;;;;;;;-146.19;100.00;58918.88;5006792;28;20084;-51
2023/03/28 02:12:29;;;;;;;2.08;1.73;;;;;;;-146.19;100.00;58918.88;5005003;28;20479;-55
2023/03/28 02:15:02;;;;;;;3.35;2.22;;;;;;;-146.19;100.00;58918.88;5001141;28;20053;-56
2023/03/28 02:17:33;;;;;;;4.68;3.40;;;;;;;-146.19;100.00;58918.88;5006654;28;20092;-48
2023/03/28 02:20:07;;;;;;;5.18;3.47;;;;;;;-146.19;100.00;58918.88;5003023;28;20073;-49
2023/03/28 02:22:39;;;;;;;7.60;4.13;;;;;;;-146.19;100.00;58918.88;4998344;28;20080;-49
2023/03/28 02:25:09;;;;;;;5.07;2.88;;;;;;;-146.19;100.00;58918.88;5015500;28;20078;-59
2023/03/28 02:27:38;;;;;;;11.82;2.50;;;;;;;-146.19;100.00;58918.88;5004240;28;20077;-52
2023/03/28 02:30:08;;;;;;;7.70;2.90;;;;;;;-146.19;100.00;58918.88;5003192;28;20109;-53
2023/03/28 02:32:36;;;;;;;4.97;2.28;;;;;;;-146.19;100.00;58918.88;5006834;28;20116;-52
2023/03/28 02:35:07;;;;;;;6.20;2.60;;;;;;;-146.19;100.00;58918.88;5000432;28;20081;-52
2023/03/28 02:37:43;;;;;;;5.40;3.10;;;;;;;-146.19;100.00;58918.88;5004592;28;20081;-46
2023/03/28 02:40:27;;;;;;;5.03;2.78;;;;;;;-146.19;100.00;58918.88;5011542;28;20115;-53
2023/03/28 02:43:07;;;;;;;6.55;3.30;;;;;;;-146.19;100.00;58918.88;5009557;28;20088;-52
2023/03/28 02:45:49;;;;;;;4.33;3.00;;;;;;;-146.19;100.00;58918.88;5013439;28;20064;-51
2023/03/28 02:48:27;;;;;;;4.03;2.53;;;;;;;-146.19;100.00;58918.88;5004938;28;20149;-49
2023/03/28 02:51:05;;;;;;;4.22;2.80;;;;;;;-146.19;100.00;58918.88;5013676;28;20093;-56
2023/03/28 02:53:43;;;;;;;6.72;2.70;;;;;;;-146.19;100.00;58918.88;5002319;28;20081;-54
2023/03/28 02:56:16;;;;;;;4.70;3.00;;;;;;;-146.19;100.00;58918.88;5002840;28;20090;-53
2023/03/28 02:58:47;;;;;;;6.88;3.83;;;;;;;-146.19;100.00;58918.88;5002958;28;20715;-49
2023/03/28 03:01:16;;;;;;;5.35;2.08;;;;;;;-146.19;100.00;58918.88;5002036;28;20689;-50
2023/03/28 03:03:46;;;;;;;3.45;2.42;;;;;;;-146.19;100.00;58918.88;4999278;28;20078;-48
2023/03/28 03:06:16;;;;;;;5.70;3.55;;;;;;;-146.19;100.00;58918.88;5006816;28;20495;-53
2023/03/28 03:08:46;;;;;;;;;;;;;;;-146.19;100.00;58918.88;5001561;28;20100;-49
2023/03/28 03:11:14;;;;;;;4.70;2.65;;;;;;;-146.19;100.00;58918.88;5003457;28;19972;-49
2023/03/28 03:13:43;;;;;;;4.68;2.72;;;;;;;-146.19;100.00;58918.88;5016261;28;20085;-54
2023/03/28 03:16:11;;;;;;;4.03;2.70;;;;;;;-146.19;100.00;58918.88;5015105;28;20092;-54
2023/03/28 03:18:40;;;;;;;5.78;3.45;;;;;;;-146.19;100.00;58918.88;5010056;28;20090;-55
2023/03/28 03:21:08;;;;;;;6.18;3.78;;;;;;;-146.19;100.00;58918.88;5014780;28;20088;-59
2023/03/28 03:23:37;;;;;;;5.03;3.20;;;;;;;-146.19;100.00;58918.88;5015675;28;20085;-57
2023/03/28 03:26:07;;;;;;;8.10;4.25;;;;;;;-146.19;100.00;58918.88;5009813;28;20451;-53
2023/03/28 03:28:35;;;;;;;4.03;2.45;;;;;;;-146.19;100.00;58918.88;5014540;28;20080;-49
2023/03/28 03:31:03;;;;;;;5.30;2.67;;;;;;;-146.19;100.00;58918.88;5011199;28;20104;-49
2023/03/28 03:33:32;;;;;;;8.13;3.35;;;;;;;-146.19;100.00;58918.88;5016725;28;20097;-48
2023/03/28 03:36:00;;;;;;;3.70;2.20;;;;;;;-146.19;100.00;58918.88;5013242;28;20096;-49
2023/03/28 03:38:29;;;;;;;4.38;2.83;;;;;;;-146.19;100.00;58918.88;5039308;28;20073;-50
2023/03/28 03:40:58;;;;;;;4.93;3.63;;;;;;;-146.19;100.00;58918.88;5015138;28;20961;-49
2023/03/28 03:43:28;;;;;;;3.22;2.35;;;;;;;-146.19;100.00;58918.88;5013299;28;20085;-51
2023/03/28 03:45:58;;;;;;;6.30;3.07;;;;;;;-146.19;100.00;58918.88;5013085;28;20088;-51
2023/03/28 03:48:27;;;;;;;3.60;2.42;;;;;;;-146.19;100.00;58918.88;5015519;28;20085;-56
2023/03/28 03:50:56;;;;;;;8.88;3.63;;;;;;;-146.19;100.00;58918.88;5010893;28;20085;-52
2023/03/28 03:53:24;;;;;;;8.48;4.10;;;;;;;-146.19;100.00;58918.88;5011871;28;20085;-52
2023/03/28 03:55:53;;;;;;;6.32;3.85;;;;;;;-146.19;100.00;58918.88;5015962;28;20093;-49
2023/03/28 03:58:21;;;;;;;5.15;3.58;;;;;;;-146.19;100.00;58918.88;5015188;28;20089;-53
2023/03/28 04:00:51;;;;;;;5.95;3.25;;;;;;;-146.19;100.00;58918.88;5014888;28;20085;-48
2023/03/28 04:03:19;;;;;;;5.40;2.55;;;;;;;-146.19;100.00;58918.88;5012564;28;20546;-49
2023/03/28 04:05:53;;;;;;;4.63;3.28;;;;;;;-146.19;100.00;58918.88;5019110;28;20090;-50
2023/03/28 04:08:22;;;;;;;7.50;3.53;;;;;;;-146.19;100.00;58918.88;5011132;28;20081;-48
2023/03/28 04:10:51;;;;;;;4.95;2.67;;;;;;;-146.19;100.00;58918.88;5011866;28;20081;-48
2023/03/28 04:13:19;;;;;;;4.10;2.53;;;;;;;-146.19;100.00;58918.88;5017534;28;20073;-48
2023/03/28 04:15:47;;;;;;;5.38;2.53;;;;;;;-146.19;100.00;58918.88;5017899;28;20092;-51
2023/03/28 04:18:19;;;;;;;8.43;3.78;;;;;;;-146.19;100.00;58918.88;5014190;28;20081;-48
2023/03/28 04:20:52;;;;;;;6.75;3.13;;;;;;;-146.19;100.00;58918.88;5016493;28;20073;-51
2023/03/28 04:23:24;;;;;;;8.35;2.47;;;;;;;-146.19;100.00;58918.88;5013344;28;20071;-48
2023/03/28 04:25:54;;;;;;;6.50;3.67;;;;;;;-146.19;100.00;58918.88;5015779;28;20081;-53
2023/03/28 04:28:24;;;;;;;7.33;2.93;;;;;;;-146.19;100.00;58918.88;5022046;28;20514;-51
2023/03/28 04:30:56;;;;;;;7.72;4.18;;;;;;;-146.19;100.00;58918.88;5016284;28;20076;-50
2023/03/28 04:33:28;;;;;;;8.52;3.83;;;;;;;-146.19;100.00;58918.88;5016380;28;20545;-53
2023/03/28 04:36:00;;;;;;;10.23;5.35;;;;;;;-146.19;100.00;58918.88;5015804;28;20069;-51
2023/03/28 04:38:35;;;;;;;5.60;3.10;;;;;;;-146.19;100.00;58918.88;5017833;28;20078;-52
2023/03/28 04:41:07;;;;;;;7.75;3.83;;;;;;;-146.19;100.00;58918.88;5011506;28;20092;-48
2023/03/28 04:43:35;;;;;;;5.72;3.00;;;;;;;-146.19;100.00;58918.88;5011591;28;20104;-48
2023/03/28 04:46:03;;;;;;;8.65;4.25;;;;;;;-146.19;100.00;58918.88;5016091;28;20081;-47
2023/03/28 04:48:33;;;;;;;7.85;4.13;;;;;;;-146.19;100.00;58918.88;5013769;28;20081;-49
2023/03/28 04:51:01;;;;;;;6.10;3.73;;;;;;;-146.19;100.00;58918.88;5015990;28;20093;-52
2023/03/28 04:53:29;;;;;;;4.63;3.13;;;;;;;-146.19;100.00;58918.88;5013869;28;20473;-47
2023/03/28 04:55:58;;;;;;;3.60;2.53;;;;;;;-146.19;100.00;58918.88;5010884;28;20086;-49
2023/03/28 04:58:27;;;;;;;5.43;2.70;;;;;;;-146.19;100.00;58918.88;5010658;28;20637;-50
2023/03/28 05:00:55;;;;;;;7.43;3.67;;;;;;;-146.19;100.00;58918.88;5011494;28;20077;-47
2023/03/28 05:03:24;;;;;;;4.28;2.95;;;;;;;-146.19;100.00;58918.88;5010812;28;20077;-47
2023/03/28 05:05:54;;;;;;;12.20;5.30;;;;;;;-146.19;100.00;58918.88;5010863;28;20084;-50
2023/03/28 05:08:24;;;;;;;9.20;4.60;;;;;;;-146.19;100.00;58918.88;5011685;28;20684;-49
2023/03/28 05:10:54;;;;;;;10.65;5.38;;;;;;;-146.19;100.00;58918.88;5011032;28;20287;-53
2023/03/28 05:13:22;;;;;;;11.90;4.25;;;;;;;-146.19;100.00;58918.88;5010548;28;20073;-50
2023/03/28 05:15:50;;;;;;;4.40;2.60;;;;;;;-146.19;100.00;58918.88;5008168;28;20085;-56
2023/03/28 05:18:19;;;;;;;9.80;4.45;;;;;;;-146.19;100.00;58918.88;5004414;28;20081;-51
2023/03/28 05:20:47;;;;;;;10.80;4.70;;;;;;;-146.19;100.00;58918.88;5011335;28;20065;-53
2023/03/28 05:23:17;;;;;;;7.55;3.72;;;;;;;-146.19;100.00;58918.88;5031603;28;20131;-50
2023/03/28 05:25:50;;;;;;;7.68;4.45;;;;;;;-146.19;100.00;58918.88;5012235;28;20069;-51
2023/03/28 05:28:18;;;;;;;8.80;4.88;;;;;;;-146.19;100.00;58918.88;5015204;28;20084;-48
2023/03/28 05:30:46;;;;;;;6.15;3.72;;;;;;;-146.19;100.00;58918.88;5010849;28;20078;-48
2023/03/28 05:33:15;;;;;;;4.05;2.75;;;;;;;-146.19;100.00;58918.88;5010025;28;20084;-51
2023/03/28 05:35:43;;;;;;;6.10;3.17;;;;;;;-146.19;100.00;58918.88;5009963;28;20085;-46
2023/03/28 05:38:13;;;;;;;7.30;4.28;;;;;;;-146.19;100.00;58918.88;5010743;28;20506;-50
2023/03/28 05:40:42;;;;;;;8.60;4.93;;;;;;;-146.19;100.00;58918.88;5011467;28;20077;-49
2023/03/28 05:43:11;;;;;;;6.67;3.80;;;;;;;-146.19;100.00;58918.88;5009627;28;20143;-52
2023/03/28 05:45:40;;;;;;;8.18;3.28;;;;;;;-146.19;100.00;58918.88;5010364;28;20085;-50
2023/03/28 05:48:09;;;;;;;14.15;4.10;;;;;;;-146.19;100.00;58918.88;5006102;28;20472;-49
2023/03/28 05:50:37;;;;;;;6.60;3.60;;;;;;;-146.19;100.00;58918.88;5009604;28;20073;-49
2023/03/28 05:53:05;;;;;;;4.20;3.03;;;;;;;-146.19;100.00;58918.88;5010441;28;20179;-51
2023/03/28 05:55:34;;;;;;;6.03;2.75;;;;;;;-146.19;100.00;58918.88;5009810;28;20089;-48
2023/03/28 05:58:05;;;;;;;5.15;2.90;;;;;;;-146.19;100.00;58918.88;5009292;28;22663;-49
2023/03/28 06:00:34;;;;;;;8.88;4.38;;;;;;;-146.19;100.00;58918.88;5010433;28;20089;-49
2023/03/28 06:03:02;;;;;;;7.47;2.70;;;;;;;-146.19;100.00;58918.88;5010641;28;20347;-48
2023/03/28 06:05:31;;;;;;;8.30;3.65;;;;;;;-146.19;100.00;58918.88;5009168;28;20111;-52
2023/03/28 06:08:00;;;;;;;7.57;3.90;;;;;;;-146.19;100.00;58918.88;5010792;28;20081;-49
2023/03/28 06:10:28;;;;;;;8.73;4.07;;;;;;;-146.19;100.00;58918.88;5014974;28;20081;-48
2023/03/28 06:12:57;;;;;;;5.78;3.75;;;;;;;-146.19;100.00;58918.88;5011801;28;20090;-48
2023/03/28 06:15:27;;;;;;;8.75;4.90;;;;;;;-146.19;100.00;58918.88;5013241;28;20084;-49
2023/03/28 06:17:56;;;;;;;6.18;3.13;;;;;;;-146.19;100.00;58918.88;5009672;28;20054;-55
2023/03/28 06:20:25;;;;;;;5.03;2.90;;;;;;;-146.19;100.00;58918.88;5009261;28;20077;-51
2023/03/28 06:22:53;;;;;;;10.73;4.65;;;;;;;-146.19;100.00;58918.88;5014753;28;20478;-49
2023/03/28 06:25:21;;;;;;;8.45;4.53;;;;;;;-146.19;100.00;58918.88;5005609;28;20118;-49
2023/03/28 06:27:49;;;;;;;5.88;3.78;;;;;;;-146.19;100.00;58918.88;5009397;28;20097;-48
2023/03/28 06:30:18;;;;;;;11.80;3.85;;;;;;;-146.19;100.00;58918.88;5009531;28;20081;-50
2023/03/28 06:32:47;;;;;;;9.57;4.47;;;;;;;-146.19;100.00;58918.88;5018094;28;20085;-51
2023/03/28 06:35:17;;;;;;;5.03;3.13;;;;;;;-146.19;100.00;58918.88;5008653;28;20081;-54
2023/03/28 06:37:45;;;;;;;7.15;2.90;;;;;;;-146.19;100.00;58918.88;5008802;28;20519;-48
2023/03/28 06:40:13;;;;;;;5.57;3.00;;;;;;;-146.19;100.00;58918.88;5016084;28;20073;-48
2023/03/28 06:42:42;;;;;;;4.85;3.05;;;;;;;-146.19;100.00;58918.88;5009216;28;20057;-51
2023/03/28 06:45:10;;;;;;;8.95;4.72;;;;;;;-146.19;100.00;58918.88;5011828;28;20080;-56
2023/03/28 06:47:39;;;;;;;4.25;2.00;;;;;;;-146.19;100.00;58918.88;5008871;28;20100;-51
2023/03/28 06:50:09;;;;;;;8.63;3.42;;;;;;;-146.19;100.00;58918.88;5011236;28;20077;-52
2023/03/28 06:52:38;;;;;;;6.38;3.40;;;;;;;-146.19;100.00;58918.88;5011815;28;20081;-52
2023/03/28 06:55:06;;;;;;;3.63;1.77;;;;;;;-146.19;100.00;58918.88;5008599;28;20614;-53
2023/03/28 06:57:35;;;;;;;5.55;2.38;;;;;;;-146.19;100.00;58918.88;5008975;28;20069;-54
2023/03/28 07:00:04;;;;;;;5.20;2.38;;;;;;;-146.19;100.00;58918.88;5011909;28;20088;-48
2023/03/28 07:02:32;;;;;;;5.97;2.53;;;;;;;-146.19;100.00;58918.88;5014485;28;20090;-49
2023/03/28 07:05:01;;;;;;;5.95;3.45;;;;;;;-146.19;100.00;58918.88;5007445;28;20069;-54
2023/03/28 07:07:30;;;;;;;5.43;2.28;;;;;;;-146.19;100.00;58918.88;5008980;28;20074;-56
2023/03/28 07:09:59;;;;;;;2.28;1.50;;;;;;;-146.19;100.00;58918.88;5008902;28;20082;-50
2023/03/28 07:12:27;;;;;;;8.65;2.80;;;;;;;-146.19;100.00;58918.88;5008549;28;20077;-51
2023/03/28 07:14:55;;;;;;;2.42;2.00;;;;;;;-146.19;100.00;58918.88;5008227;28;20101;-53
2023/03/28 07:17:24;;;;;;;10.38;2.28;;;;;;;-146.19;100.00;58918.88;5008283;28;20483;-56
2023/03/28 07:19:53;;;;;;;5.50;1.77;;;;;;;-146.19;100.00;58918.88;5007215;28;20086;-50
2023/03/28 07:22:21;;;;;;;5.18;3.25;;;;;;;-146.19;100.00;58918.88;5014188;28;20093;-51
2023/03/28 07:24:51;;;;;;;7.05;2.55;;;;;;;-146.19;100.00;58918.88;5011222;28;20088;-48
2023/03/28 07:27:19;;;;;;;2.17;1.38;;;;;;;-146.19;100.00;58918.88;5018206;28;20468;-50
2023/03/28 07:29:47;;;;;;;5.28;1.80;;;;;;;-146.19;100.00;58918.88;5009203;28;20081;-50
2023/03/28 07:32:16;;;;;;;5.72;2.03;;;;;;;-146.19;100.00;58918.88;5005496;28;20084;-52
2023/03/28 07:34:44;;;;;;;6.43;2.22;;;;;;;-146.19;100.00;58918.88;5008574;28;20092;-48
2023/03/28 07:37:30;;;;;;;4.90;2.28;;;;;;;-146.19;100.00;58918.88;5008750;28;20061;-53
2023/03/28 07:40:00;;;;;;;5.15;2.35;;;;;;;-146.19;100.00;58918.88;5010007;28;20092;-53
2023/03/28 07:42:28;;;;;;;6.17;2.33;;;;;;;-146.19;100.00;58918.88;5008780;28;20045;-52
2023/03/28 07:44:57;;;;;;;4.28;2.47;;;;;;;-146.19;100.00;58918.88;5004736;28;20124;-49
2023/03/28 07:47:25;;;;;;;5.38;2.53;;;;;;;-146.19;100.00;58918.88;5009258;28;20116;-48
2023/03/28 07:49:54;;;;;;;2.88;1.80;;;;;;;-146.19;100.00;58918.88;5003001;28;20073;-55
2023/03/28 07:52:22;;;;;;;5.45;1.75;;;;;;;-146.19;100.00;58918.88;5008520;28;20076;-50
2023/03/28 07:54:51;;;;;;;7.60;2.83;;;;;;;-146.19;100.00;58918.88;5008174;28;20096;-56
2023/03/28 07:57:21;;;;;;;5.00;1.83;;;;;;;-146.19;100.00;58918.88;5008035;28;20108;-54
2023/03/28 07:59:49;;;;;;;6.90;2.70;;;;;;;-146.19;100.00;58918.88;5015610;28;20073;-54
2023/03/28 08:02:17;;;;;;;5.05;2.05;;;;;;;-146.19;100.00;58918.88;5020570;28;20070;-49
2023/03/28 08:04:46;;;;;;;6.07;2.50;;;;;;;-146.19;100.00;58918.88;5017886;28;20081;-53
2023/03/28 08:07:14;;;;;;;6.95;2.08;;;;;;;-146.19;100.00;58918.88;5013099;28;20089;-50
2023/03/28 08:09:42;;;;;;;6.28;2.85;;;;;;;-146.19;100.00;58918.88;5016537;28;20104;-52
2023/03/28 08:12:11;;;;;;;3.83;2.42;;;;;;;-146.19;100.00;58918.88;5021650;28;20112;-50
2023/03/28 08:14:41;;;;;;;9.57;2.97;;;;;;;-146.19;100.00;58918.88;5016508;28;20073;-56
2023/03/28 08:17:09;;;;;;;9.05;2.60;;;;;;;-146.19;100.00;58918.88;5007333;28;20081;-50
2023/03/28 08:19:38;;;;;;;6.90;2.55;;;;;;;-146.19;100.00;58918.88;5015226;28;20074;-50
2023/03/28 08:22:06;;;;;;;8.25;3.53;;;;;;;-146.19;100.00;58918.88;5025080;28;20502;-53
2023/03/28 08:24:34;;;;;;;5.07;2.70;;;;;;;-146.19;100.00;58918.88;5013483;28;20092;-50
2023/03/28 08:27:04;;;;;;;8.80;3.00;;;;;;;-146.19;100.00;58918.88;5020795;28;20077;-50
2023/03/28 08:29:32;;;;;;;4.30;1.88;;;;;;;-146.19;100.00;58918.88;5008992;28;20084;-50
2023/03/28 08:32:05;;;;;;;4.22;1.83;;;;;;;-146.19;100.00;58918.88;5014969;28;20088;-52
2023/03/28 08:34:33;;;;;;;4.05;1.98;;;;;;;-146.19;100.00;58918.88;5009175;28;20077;-53
2023/03/28 08:37:02;;;;;;;6.82;2.10;;;;;;;-146.19;100.00;58918.88;5019778;28;20089;-48
2023/03/28 08:39:31;;;;;;;6.43;2.10;;;;;;;-146.19;100.00;58918.88;5014382;28;20081;-48
2023/03/28 08:42:20;;;;;;;5.15;1.75;;;;;;;-146.19;100.00;58918.88;5016246;28;20096;-51
2023/03/28 08:45:11;;;;;;;5.22;1.75;;;;;;;-146.19;100.00;58918.88;5016845;28;20077;-58
2023/03/28 08:47:48;;;;;;;3.83;1.63;;;;;;;-146.19;100.00;58918.88;5015182;28;20103;-54
2023/03/28 08:50:22;;;;;;;3.20;1.40;;;;;;;-146.19;100.00;58918.88;5027607;28;20069;-51
2023/03/28 08:52:51;;;;;;;2.67;1.20;;;;;;;-146.19;100.00;58918.88;5013322;28;20081;-53
2023/03/28 08:55:29;;;;;;;4.95;2.22;;;;;;;-146.19;100.00;58918.88;5019703;28;20425;-48
2023/03/28 08:57:58;;;;;;;5.45;2.00;;;;;;;-146.19;100.00;58918.88;5012257;28;20085;-55
2023/03/28 09:00:29;;;;;;;5.28;1.40;;;;;;;-146.19;100.00;58918.88;5012786;28;20092;-54
2023/03/28 09:02:59;;;;;;;3.25;1.70;;;;;;;-146.19;100.00;58918.88;5023583;28;20088;-48
2023/03/28 09:05:34;;;;;;;1.98;1.33;;;;;;;-146.19;100.00;58918.88;5014648;28;20077;-56
2023/03/28 09:08:12;;;;;;;4.82;1.63;;;;;;;-146.19;100.00;58918.88;5021201;28;20089;-50
2023/03/28 09:10:44;;;;;;;5.55;2.03;;;;;;;-146.19;100.00;58918.88;5014329;28;20085;-51
2023/03/28 09:13:23;;;;;;;6.88;2.10;;;;;;;-146.19;100.00;58918.88;5013366;28;20472;-52
2023/03/28 09:16:03;;;;;;;4.65;1.33;;;;;;;-146.19;100.00;58918.88;5012029;28;20089;-53
2023/03/28 09:18:47;;;;;;;4.30;1.55;;;;;;;-146.19;100.00;58918.88;5017460;28;20096;-53
2023/03/28 09:21:19;;;;;;;3.65;1.60;;;;;;;-146.19;100.00;58918.88;5015695;28;20470;-51
2023/03/28 09:24:08;;;;;;;3.15;1.42;;;;;;;-146.19;100.00;58918.88;5009202;28;20084;-49
2023/03/28 09:26:39;;;;;;;2.55;1.33;;;;;;;-146.19;100.00;58918.88;5015889;28;20090;-52
2023/03/28 09:29:10;;;;;;;3.65;1.65;;;;;;;-146.19;100.00;58918.88;5013446;28;20085;-55
2023/03/28 09:31:41;;;;;;;1.85;0.93;;;;;;;-146.19;100.00;58918.88;5018123;28;20081;-53
2023/03/28 09:34:18;;;;;;;2.95;1.50;;;;;;;-146.19;100.00;58918.88;5019980;28;20080;-54
2023/03/28 09:36:48;;;;;;;2.33;1.20;;;;;;;-146.19;100.00;58918.88;5016312;28;20054;-52
2023/03/28 09:39:24;;;;;;;2.15;1.27;;;;;;;-146.19;100.00;58918.88;5013940;28;20088;-53
2023/03/28 09:41:57;;;;;;;4.25;1.30;;;;;;;-146.19;100.00;58918.88;5013348;28;20081;-52
2023/03/28 09:44:28;;;;;;;4.85;1.75;;;;;;;-146.19;100.00;58918.88;5034005;28;20077;-56
2023/03/28 09:46:58;;;;;;;3.25;1.42;;;;;;;-146.19;100.00;58918.88;5013544;28;20104;-54
2023/03/28 09:49:29;;;;;;;3.05;1.02;;;;;;;-146.19;100.00;58918.88;5014908;28;20073;-52
2023/03/28 09:51:57;;;;;;;1.70;1.30;;;;;;;-146.19;100.00;58918.88;5018976;28;20087;-52
2023/03/28 09:54:28;;;;;;;1.85;1.00;;;;;;;-146.19;100.00;58918.88;5018866;28;20504;-49
2023/03/28 09:57:00;;;;;;;1.60;0.90;;;;;;;-146.19;100.00;58918.88;5017993;28;20074;-51
2023/03/28 09:59:29;;;;;;;3.25;1.48;;;;;;;-146.19;100.00;58918.88;5018130;28;20088;-53
2023/03/28 10:02:01;;;;;;;2.30;0.93;;;;;;;-146.19;100.00;58918.88;5011430;28;20084;-55
2023/03/28 10:04:36;;;;;;;4.32;1.15;;;;;;;-146.19;100.00;58918.88;5012098;28;20085;-48
2023/03/28 10:07:27;;;;;;;2.13;1.17;;;;;;;-146.19;100.00;58918.88;5018417;28;20538;-51
2023/03/28 10:09:57;;;;;;;2.08;1.00;;;;;;;-146.19;100.00;58918.88;5010159;28;20529;-52
2023/03/28 10:12:32;;;;;;;5.18;1.60;;;;;;;-146.19;100.00;58918.88;5014545;28;20069;-54
2023/03/28 10:15:00;;;;;;;5.40;1.20;;;;;;;-146.19;100.00;58918.88;5018255;28;20080;-48
2023/03/28 10:17:30;;;;;;;4.78;1.05;;;;;;;-146.19;100.00;58918.88;5016916;28;20749;-51
2023/03/28 10:20:05;;;;;;;1.17;0.70;;;;;;;-146.19;100.00;58918.88;5017660;28;20088;-57
2023/03/28 10:22:35;;;;;;;1.38;1.00;;;;;;;-146.19;100.00;58918.88;5015732;28;20081;-56
2023/03/28 10:25:04;;;;;;;4.85;1.33;;;;;;;-146.19;100.00;58918.88;5015681;28;20120;-56
2023/03/28 10:27:33;;;;;;;3.25;1.35;;;;;;;-146.19;100.00;58918.88;5015523;28;20078;-48
2023/03/28 10:30:10;;;;;;;3.35;1.30;;;;;;;-146.19;100.00;58918.88;5021042;28;20089;-50
2023/03/28 10:32:38;;;;;;;2.83;1.10;;;;;;;-146.19;100.00;58918.88;5011310;28;20084;-48
2023/03/28 10:35:17;;;;;;;2.70;1.08;;;;;;;-146.19;100.00;58918.88;5012702;28;20092;-50
2023/03/28 10:37:49;;;;;;;8.23;1.73;;;;;;;-146.19;100.00;58918.88;5012982;28;20087;-50
2023/03/28 10:40:26;;;;;;;3.33;1.55;;;;;;;-146.19;100.00;58918.88;5008351;28;20081;-51
2023/03/28 10:42:56;;;;;;;1.67;0.82;;;;;;;-146.19;100.00;58918.88;5012739;28;20485;-51
2023/03/28 10:45:32;;;;;;;1.27;0.82;;;;;;;-146.19;100.00;58918.88;5017462;28;20081;-51
2023/03/28 10:48:02;;;;;;;2.53;1.10;;;;;;;-146.19;100.00;58918.88;5021780;28;20534;-49
2023/03/28 10:50:38;;;;;;;3.75;0.93;;;;;;;-146.19;100.00;58918.88;5013453;28;20089;-49
2023/03/28 10:53:24;;;;;;;4.05;1.20;;;;;;;-146.19;100.00;58918.88;5021456;28;20085;-54
2023/03/28 10:56:02;;;;;;;3.78;1.10;;;;;;;-146.19;100.00;58918.88;5010419;28;20084;-50
2023/03/28 10:58:33;;;;;;;3.08;1.17;;;;;;;-146.19;100.00;58918.88;5014560;28;20081;-50
2023/03/28 11:01:07;;;;;;;1.83;0.90;;;;;;;-146.19;100.00;58918.88;5011049;28;20108;-50
2023/03/28 11:03:47;;;;;;;3.65;1.05;;;;;;;-146.19;100.00;58918.88;5014055;28;20081;-50
2023/03/28 11:06:21;;;;;;;2.88;0.95;;;;;;;-146.19;100.00;58918.88;5010948;28;20096;-53
2023/03/28 11:08:57;;;;;;;4.82;1.10;;;;;;;-146.19;100.00;58918.88;5009673;28;20077;-50
2023/03/28 11:11:35;;;;;;;1.13;0.98;;;;;;;-146.19;100.00;58918.88;5009670;28;20081;-48
2023/03/28 11:14:10;;;;;;;2.38;1.17;;;;;;;-146.19;100.00;58918.88;5010671;28;20092;-48
2023/03/28 11:16:44;;;;;;;7.88;1.20;;;;;;;-146.19;100.00;58918.88;5006168;28;20081;-53
2023/03/28 11:19:18;;;;;;;2.90;1.15;;;;;;;-146.19;100.00;58918.88;5018022;28;20091;-51
2023/03/28 11:21:52;;;;;;;1.27;0.80;;;;;;;-146.19;100.00;58918.88;5014321;28;20077;-53
2023/03/28 11:24:26;;;;;;;6.45;1.52;;;;;;;-146.19;100.00;58918.88;5018245;28;20643;-49
2023/03/28 11:26:59;;;;;;;1.63;0.88;;;;;;;-146.19;100.00;58918.88;5009146;28;20742;-52
2023/03/28 11:29:46;;;;;;;5.03;0.98;;;;;;;-146.19;100.00;58918.88;5017833;28;20104;-49